WetterOnline ( https://www.wetteronline.de )

Wetter aktuell Konstanz

Aktuelles Wetter: Konstanz (397m)

6-stündlich | Neueste Meldungen
Ortszeit Temperatur Wetter
Mi, 30.11. 19:00 3.7° C bedeckt
Mi, 30.11. 13:00 4.8° C bedeckt
Mi, 30.11. 7:00 5.1° C bedeckt
Mi, 30.11. 1:00 5.5° C leichter Regen
Di, 29.11. 19:00 6.3° C leichter Regen
Di, 29.11. 13:00 6.9° C leichter Regen
Di, 29.11. 7:00 4.9° C bedeckt
Di, 29.11. 1:00 7.5° C leichter Regen
Ortszeit Temperatur Wetter
Mi, 30.11. 20:30 3.3° C bewölkt
Mi, 30.11. 20:10 3.3° C bedeckt
Mi, 30.11. 20:00 3.5° C bedeckt
Mi, 30.11. 19:50 3.5° C bedeckt
Mi, 30.11. 19:40 3.6° C bedeckt
Mi, 30.11. 19:30 3.6° C bedeckt
Mi, 30.11. 19:00 3.7° C bedeckt
Mi, 30.11. 18:30 3.6° C bewölkt
Mi, 30.11. 18:00 3.6° C bedeckt
Mi, 30.11. 17:30 3.5° C bedeckt
Ortszeit Relative Feuchte Sichtweite
Mi, 30.11. 19:00 79% 35 km
Mi, 30.11. 13:00 82% 27 km
Mi, 30.11. 7:00 91% 19 km
Mi, 30.11. 1:00 95% 13 km
Di, 29.11. 19:00 97% 11 km
Di, 29.11. 13:00 87% 21 km
Di, 29.11. 7:00 97% 35 km
Di, 29.11. 1:00 83% 30 km
Ortszeit Relative Feuchte Sichtweite
Mi, 30.11. 20:30 77% 30 km
Mi, 30.11. 20:10 78% -
Mi, 30.11. 20:00 78% 35 km
Mi, 30.11. 19:50 78% -
Mi, 30.11. 19:40 78% -
Mi, 30.11. 19:30 79% 35 km
Mi, 30.11. 19:00 79% 35 km
Mi, 30.11. 18:30 82% 27 km
Mi, 30.11. 18:00 82% 28 km
Mi, 30.11. 17:30 82% 26 km
Ortszeit Niederschlagsmenge Niederschlagsart
Mi, 30.11. 19:00 0.0 l/m2 in 12 Std. -
Mi, 30.11. 13:00 0.0 l/m2 in 6 Std. -
Mi, 30.11. 7:00 4 l/m2 in 12 Std. Regen
Mi, 30.11. 1:00 4 l/m2 in 6 Std. Regen
Di, 29.11. 19:00 3 l/m2 in 12 Std. Regen
Di, 29.11. 13:00 0.1 l/m2 in 6 Std. Regen
Di, 29.11. 7:00 0.1 l/m2 in 12 Std. Regen
Di, 29.11. 1:00 0.1 l/m2 in 6 Std. Regen
Ortszeit Niederschlagsmenge Niederschlagsart
Mi, 30.11. 20:30 0.0 l/m2 in 1 Std. -
Mi, 30.11. 20:10 keine Meldung -
Mi, 30.11. 20:00 0.0 l/m2 in 1 Std. -
Mi, 30.11. 19:50 keine Meldung -
Mi, 30.11. 19:40 keine Meldung -
Mi, 30.11. 19:30 0.0 l/m2 in 1 Std. -
Mi, 30.11. 19:00 0.0 l/m2 in 1 Std. -
Mi, 30.11. 18:30 0.0 l/m2 in 1 Std. -
Mi, 30.11. 18:00 0.0 l/m2 in 1 Std. -
Mi, 30.11. 17:30 0.0 l/m2 in 1 Std. -
Ortszeit Stärke Spitze Richtung
km/h Bft. km/h Grad Sektor
Mi, 30.11. 19:00 11 2 28 40° NO
Mi, 30.11. 13:00 13 3 26 70° O
Mi, 30.11. 7:00 7 2 14 50° NO
Mi, 30.11. 1:00 6 1 11 300° NW
Di, 29.11. 19:00 7 2 11 310° NW
Di, 29.11. 13:00 7 2 11 270° W
Di, 29.11. 7:00 4 1 18 350° N
Di, 29.11. 1:00 7 2 18 260° W
Ortszeit Stärke Spitze Richtung
km/h Bft. km/h Grad Sektor
Mi, 30.11. 20:30 7 2 22 60° NO
Mi, 30.11. 20:10 13 3 - 60° NO
Mi, 30.11. 20:00 11 2 22 60° NO
Mi, 30.11. 19:50 11 2 - 60° NO
Mi, 30.11. 19:40 15 3 - 60° NO
Mi, 30.11. 19:30 14 3 22 50° NO
Mi, 30.11. 19:00 11 2 20 40° NO
Mi, 30.11. 18:30 13 3 20 50° NO
Mi, 30.11. 18:00 13 3 26 40° NO
Mi, 30.11. 17:30 15 3 26 50° NO
Ortszeit Untergrenze Bedeckung Gattung
total tief tief mittel hoch
Mi, 30.11. 19:00 360 m 8/8 8/8 - - -
Mi, 30.11. 13:00 420 m 8/8 8/8 - - -
Mi, 30.11. 7:00 540 m 8/8 8/8 - - -
Mi, 30.11. 1:00 870 m 7/8 7/8 - - -
Di, 29.11. 19:00 480 m 8/8 8/8 - - -
Di, 29.11. 13:00 840 m 8/8 8/8 - - -
Di, 29.11. 7:00 750 m 8/8 8/8 - - -
Di, 29.11. 1:00 510 m 8/8 8/8 - - -
Ortszeit Bedeckungsgrad in Achtel und Wolkenuntergrenze
Mi, 30.11. 20:30 7(810m) 8(4200m)
Mi, 30.11. 20:10 8
Mi, 30.11. 20:00 7(780m) 8(1140m) 8(4200m)
Mi, 30.11. 19:50 7(780m) 8(1140m) 8(4200m)
Mi, 30.11. 19:40 8
Mi, 30.11. 19:30 8(810m)
Mi, 30.11. 19:00 1(360m) 8(660m)
Mi, 30.11. 18:30 7(450m)
Mi, 30.11. 18:00 8(510m)
Mi, 30.11. 17:30 8(510m)
Ortszeit Luftdruck NN (hPa) Tendenz (hPa in 3 Std.)
Mi, 30.11. 19:00 1022 + 0,5
Mi, 30.11. 13:00 1021 - 0,2
Mi, 30.11. 7:00 1020 + 0,3
Mi, 30.11. 1:00 1020 + 0,1
Di, 29.11. 19:00 1019 + 0,8
Di, 29.11. 13:00 1018 + 0,3
Di, 29.11. 7:00 1017 + 0,8
Di, 29.11. 1:00 1015 + 0,2
Ortszeit Luftdruck NN (hPa) Tendenz (hPa in 3 Std.)
Mi, 30.11. 20:30 1023 + 0,7
Mi, 30.11. 20:10 1023 keine Meldung
Mi, 30.11. 20:00 1023 + 0,7
Mi, 30.11. 19:50 1023 keine Meldung
Mi, 30.11. 19:40 1023 keine Meldung
Mi, 30.11. 19:30 1022 + 0,6
Mi, 30.11. 19:00 1022 + 0,5
Mi, 30.11. 18:30 1022 + 0,5
Mi, 30.11. 18:00 1022 + 0,5
Mi, 30.11. 17:30 1022 + 0,3
Ortszeit Schneehöhe (cm)
Mi, 30.11. 19:00 0
Mi, 30.11. 13:00 0
Mi, 30.11. 7:00 0
Mi, 30.11. 1:00 0
Di, 29.11. 19:00 0
Di, 29.11. 13:00 0
Di, 29.11. 7:00 0
Di, 29.11. 1:00 0
Ortszeit Schneehöhe (cm)
Mi, 30.11. 20:30 0
Mi, 30.11. 20:10 0
Mi, 30.11. 20:00 0
Mi, 30.11. 19:50 0
Mi, 30.11. 19:40 0
Mi, 30.11. 19:30 0
Mi, 30.11. 19:00 0
Mi, 30.11. 18:30 0
Mi, 30.11. 18:00 0
Mi, 30.11. 17:30 0
Link zu dieser Seite / Seite empfehlen

Das Wetter in ...